Time,TemperatureF,DewpointF,PressureIn,WindDirection,WindDirectionDegrees,WindSpeedMPH,WindSpeedGustMPH,Humidity,HourlyPrecipIn,Conditions,Clouds,dailyrainin,SoftwareType,DateUTC
2013-10-23 00:00:00,81.1,75.1,29.88,West,259,3.0,5.0,82,0.00,,,0.00,Wunderground v.1.15,2013-10-23 04:00:00,
2013-10-23 00:10:00,80.9,74.9,29.88,WSW,249,3.0,3.0,82,0.00,,,0.00,Wunderground v.1.15,2013-10-23 04:10:00,
2013-10-23 00:20:00,80.7,75.1,29.88,West,260,2.0,2.0,83,0.00,,,0.00,Wunderground v.1.15,2013-10-23 04:20:00,
2013-10-23 00:30:00,80.6,75.0,29.88,WSW,238,3.0,3.0,83,0.00,,,0.00,Wunderground v.1.15,2013-10-23 04:30:00,
2013-10-23 00:40:00,80.4,75.1,29.87,WNW,287,2.0,2.0,84,0.00,,,0.00,Wunderground v.1.15,2013-10-23 04:40:00,
2013-10-23 00:50:00,80.3,75.0,29.87,West,265,2.0,3.0,84,0.00,,,0.00,Wunderground v.1.15,2013-10-23 04:50:00,
2013-10-23 01:00:00,80.0,74.7,29.87,West,278,2.0,2.0,84,0.00,,,0.00,Wunderground v.1.15,2013-10-23 05:00:00,
2013-10-23 01:10:00,79.9,75.0,29.87,SW,236,2.0,2.0,85,0.00,,,0.00,Wunderground v.1.15,2013-10-23 05:10:00,
2013-10-23 01:20:00,79.7,74.8,29.87,East,84,1.0,1.0,85,0.00,,,0.00,Wunderground v.1.15,2013-10-23 05:20:00,
2013-10-23 01:30:00,79.6,74.7,29.86,SW,226,1.0,2.0,85,0.00,,,0.00,Wunderground v.1.15,2013-10-23 05:30:00,
2013-10-23 01:40:00,79.5,74.9,29.85,WSW,239,2.0,2.0,86,0.00,,,0.00,Wunderground v.1.15,2013-10-23 05:40:00,
2013-10-23 01:50:00,79.4,74.8,29.86,SSW,200,2.0,2.0,86,0.00,,,0.00,Wunderground v.1.15,2013-10-23 05:50:00,
2013-10-23 02:00:00,79.2,75.0,29.85,West,269,2.0,2.0,87,0.00,,,0.00,Wunderground v.1.15,2013-10-23 06:00:00,
2013-10-23 02:10:00,79.1,74.9,29.85,WSW,239,1.0,1.0,87,0.00,,,0.00,Wunderground v.1.15,2013-10-23 06:10:00,
2013-10-23 02:20:00,79.0,74.8,29.85,SW,233,2.0,2.0,87,0.00,,,0.00,Wunderground v.1.15,2013-10-23 06:20:00,
2013-10-23 02:30:00,78.9,74.7,29.84,SW,228,1.0,2.0,87,0.00,,,0.00,Wunderground v.1.15,2013-10-23 06:30:00,
2013-10-23 02:40:00,78.8,74.9,29.84,SSW,204,2.0,2.0,88,0.00,,,0.00,Wunderground v.1.15,2013-10-23 06:40:00,
2013-10-23 02:50:00,78.8,74.9,29.84,SW,233,0.0,2.0,88,0.00,,,0.00,Wunderground v.1.15,2013-10-23 06:50:00,
2013-10-23 03:00:00,78.8,74.9,29.84,West,262,1.0,1.0,88,0.00,,,0.00,Wunderground v.1.15,2013-10-23 07:00:00,
2013-10-23 03:10:00,78.8,74.9,29.84,SW,219,1.0,1.0,88,0.00,,,0.00,Wunderground v.1.15,2013-10-23 07:10:00,
2013-10-23 03:20:00,78.7,74.8,29.83,SW,224,1.0,1.0,88,0.00,,,0.00,Wunderground v.1.15,2013-10-23 07:20:00,
2013-10-23 03:30:00,78.6,74.7,29.84,SW,225,1.0,3.0,88,0.00,,,0.00,Wunderground v.1.15,2013-10-23 07:30:00,
2013-10-23 03:40:00,78.6,74.7,29.83,SW,221,2.0,3.0,88,0.00,,,0.00,Wunderground v.1.15,2013-10-23 07:40:00,
2013-10-23 03:50:00,78.8,75.3,29.83,SW,233,2.0,4.0,89,0.00,,,0.00,Wunderground v.1.15,2013-10-23 07:50:00,
2013-10-23 04:00:00,78.8,75.3,29.83,SSW,207,2.0,2.0,89,0.00,,,0.00,Wunderground v.1.15,2013-10-23 08:00:00,
2013-10-23 04:10:00,78.8,75.3,29.84,SW,229,2.0,4.0,89,0.00,,,0.00,Wunderground v.1.15,2013-10-23 08:10:00,
2013-10-23 04:20:00,78.8,75.3,29.84,West,260,1.0,1.0,89,0.00,,,0.00,Wunderground v.1.15,2013-10-23 08:20:00,
2013-10-23 04:30:00,78.7,75.2,29.84,WSW,245,1.0,1.0,89,0.00,,,0.00,Wunderground v.1.15,2013-10-23 08:30:00,
2013-10-23 04:40:00,78.6,75.4,29.84,WSW,252,1.0,1.0,90,0.00,,,0.00,Wunderground v.1.15,2013-10-23 08:40:00,
2013-10-23 04:50:00,78.6,75.4,29.84,West,274,1.0,1.0,90,0.00,,,0.00,Wunderground v.1.15,2013-10-23 08:50:00,
2013-10-23 05:00:00,78.4,75.2,29.84,West,259,1.0,1.0,90,0.00,,,0.00,Wunderground v.1.15,2013-10-23 09:00:00,
2013-10-23 05:10:00,78.2,75.4,29.84,WSW,253,0.0,1.0,91,0.00,,,0.00,Wunderground v.1.15,2013-10-23 09:10:00,
2013-10-23 05:20:00,78.1,75.3,29.85,West,259,1.0,1.0,91,0.00,,,0.00,Wunderground v.1.15,2013-10-23 09:20:00,
2013-10-23 05:30:00,77.9,75.1,29.85,WSW,242,0.0,0.0,91,0.00,,,0.00,Wunderground v.1.15,2013-10-23 09:30:00,
2013-10-23 05:40:00,77.8,75.3,29.85,West,266,0.0,0.0,92,0.00,,,0.00,Wunderground v.1.15,2013-10-23 09:40:00,
2013-10-23 05:50:00,77.6,75.1,29.85,WSW,257,0.0,0.0,92,0.00,,,0.00,Wunderground v.1.15,2013-10-23 09:50:00,
2013-10-23 06:00:00,77.6,75.1,29.85,WNW,285,1.0,2.0,92,0.00,,,0.00,Wunderground v.1.15,2013-10-23 10:00:00,
2013-10-23 06:10:00,77.4,74.9,29.85,WSW,249,2.0,2.0,92,0.00,,,0.00,Wunderground v.1.15,2013-10-23 10:10:00,
2013-10-23 06:20:00,77.1,74.3,29.85,WSW,243,1.0,1.0,91,0.00,,,0.00,Wunderground v.1.15,2013-10-23 10:20:00,
2013-10-23 06:30:00,76.8,73.6,29.86,WSW,238,0.0,3.0,90,0.00,,,0.00,Wunderground v.1.15,2013-10-23 10:30:00,
2013-10-23 06:40:00,76.8,73.6,29.86,West,280,1.0,1.0,90,0.00,,,0.00,Wunderground v.1.15,2013-10-23 10:40:00,
2013-10-23 06:50:00,76.7,73.2,29.86,WSW,249,0.0,0.0,89,0.00,,,0.00,Wunderground v.1.15,2013-10-23 10:50:00,
2013-10-23 07:00:00,76.6,73.1,29.86,WSW,239,0.0,0.0,89,0.00,,,0.00,Wunderground v.1.15,2013-10-23 11:00:00,
2013-10-23 07:10:00,76.5,72.7,29.86,West,274,1.0,3.0,88,0.00,,,0.00,Wunderground v.1.15,2013-10-23 11:10:00,
2013-10-23 07:20:00,76.4,72.6,29.87,WSW,255,1.0,1.0,88,0.00,,,0.00,Wunderground v.1.15,2013-10-23 11:20:00,
2013-10-23 07:30:00,76.4,72.2,29.87,SSW,203,0.0,0.0,87,0.00,,,0.00,Wunderground v.1.15,2013-10-23 11:30:00,
2013-10-23 07:40:00,76.4,72.2,29.87,SW,231,0.0,0.0,87,0.00,,,0.00,Wunderground v.1.15,2013-10-23 11:40:00,
2013-10-23 07:50:00,76.4,72.6,29.88,West,261,0.0,0.0,88,0.00,,,0.00,Wunderground v.1.15,2013-10-23 11:50:00,
2013-10-23 08:00:00,76.4,72.2,29.88,West,267,0.0,0.0,87,0.00,,,0.00,Wunderground v.1.15,2013-10-23 12:00:00,
2013-10-23 08:10:00,76.6,72.4,29.88,SW,233,0.0,0.0,87,0.00,,,0.00,Wunderground v.1.15,2013-10-23 12:10:00,
2013-10-23 08:20:00,77.2,73.0,29.88,SW,224,1.0,2.0,87,0.00,,,0.00,Wunderground v.1.15,2013-10-23 12:20:00,
2013-10-23 08:30:00,77.8,72.9,29.88,West,278,1.0,1.0,85,0.00,,,0.00,Wunderground v.1.15,2013-10-23 12:30:00,
2013-10-23 08:40:00,78.3,73.1,29.88,NW,309,3.0,4.0,84,0.00,,,0.00,Wunderground v.1.15,2013-10-23 12:40:00,
2013-10-23 08:50:00,78.6,73.4,29.88,WNW,298,2.0,2.0,84,0.00,,,0.00,Wunderground v.1.15,2013-10-23 12:50:00,
2013-10-23 09:00:00,78.7,73.1,29.88,WNW,284,3.0,5.0,83,0.00,,,0.00,Wunderground v.1.15,2013-10-23 13:00:00,
2013-10-23 09:10:00,79.3,73.3,29.88,West,263,3.0,3.0,82,0.00,,,0.00,Wunderground v.1.15,2013-10-23 13:10:00,
2013-10-23 09:20:00,80.0,73.6,29.89,NNW,345,3.0,3.0,81,0.00,,,0.00,Wunderground v.1.15,2013-10-23 13:20:00,
2013-10-23 09:30:00,80.8,73.7,29.89,NW,307,3.0,5.0,79,0.00,,,0.00,Wunderground v.1.15,2013-10-23 13:30:00,
2013-10-23 09:40:00,81.2,72.9,29.90,NW,304,4.0,4.0,76,0.00,,,0.00,Wunderground v.1.15,2013-10-23 13:40:00,
2013-10-23 09:50:00,81.7,73.4,29.90,NW,319,3.0,4.0,76,0.00,,,0.00,Wunderground v.1.15,2013-10-23 13:50:00,
2013-10-23 10:00:00,82.1,73.4,29.90,NW,314,4.0,6.0,75,0.00,,,0.00,Wunderground v.1.15,2013-10-23 14:00:00,
2013-10-23 10:10:00,82.1,73.0,29.90,WNW,295,5.0,6.0,74,0.00,,,0.00,Wunderground v.1.15,2013-10-23 14:10:00,
2013-10-23 10:20:00,82.4,72.9,29.90,WNW,301,6.0,7.0,73,0.00,,,0.00,Wunderground v.1.15,2013-10-23 14:20:00,
2013-10-23 10:30:00,82.3,72.8,29.90,NW,309,6.0,6.0,73,0.00,,,0.00,Wunderground v.1.15,2013-10-23 14:30:00,
2013-10-23 10:40:00,82.5,73.0,29.90,North,353,5.0,6.0,73,0.00,,,0.00,Wunderground v.1.15,2013-10-23 14:40:00,
2013-10-23 10:50:00,82.7,72.3,29.89,NW,314,6.0,6.0,71,0.00,,,0.00,Wunderground v.1.15,2013-10-23 14:50:00,
2013-10-23 11:00:00,83.0,72.2,29.90,NW,316,6.0,6.0,70,0.00,,,0.00,Wunderground v.1.15,2013-10-23 15:00:00,
2013-10-23 11:10:00,83.3,72.5,29.90,WNW,303,5.0,6.0,70,0.00,,,0.00,Wunderground v.1.15,2013-10-23 15:10:00,
2013-10-23 11:20:00,84.1,73.3,29.89,WSW,240,5.0,5.0,70,0.00,,,0.00,Wunderground v.1.15,2013-10-23 15:20:00,
2013-10-23 11:30:00,83.8,72.5,29.89,West,267,6.0,6.0,69,0.00,,,0.00,Wunderground v.1.15,2013-10-23 15:30:00,
2013-10-23 11:40:00,84.9,73.2,29.89,NW,311,4.0,4.0,68,0.00,,,0.00,Wunderground v.1.15,2013-10-23 15:40:00,
2013-10-23 11:50:00,84.3,73.4,29.89,SE,139,6.0,6.0,70,0.00,,,0.00,Wunderground v.1.15,2013-10-23 15:50:00,
2013-10-23 12:00:00,84.9,74.0,29.89,NW,304,5.0,6.0,70,0.00,,,0.00,Wunderground v.1.15,2013-10-23 16:00:00,
2013-10-23 12:10:00,84.1,73.3,29.89,NW,318,5.0,6.0,70,0.00,,,0.00,Wunderground v.1.15,2013-10-23 16:10:00,
2013-10-23 12:20:00,84.0,72.7,29.88,North,352,6.0,6.0,69,0.00,,,0.00,Wunderground v.1.15,2013-10-23 16:20:00,
2013-10-23 12:30:00,84.5,72.8,29.88,NW,323,6.0,6.0,68,0.00,,,0.00,Wunderground v.1.15,2013-10-23 16:30:00,
2013-10-23 12:40:00,84.7,72.5,29.88,NNW,331,5.0,5.0,67,0.00,,,0.00,Wunderground v.1.15,2013-10-23 16:40:00,
2013-10-23 12:50:00,85.4,72.7,29.88,NNW,340,4.0,4.0,66,0.00,,,0.00,Wunderground v.1.15,2013-10-23 16:50:00,
2013-10-23 13:00:00,85.5,72.8,29.87,NW,316,6.0,6.0,66,0.00,,,0.00,Wunderground v.1.15,2013-10-23 17:00:00,
2013-10-23 13:10:00,85.9,72.8,29.86,NW,307,5.0,7.0,65,0.00,,,0.00,Wunderground v.1.15,2013-10-23 17:10:00,
2013-10-23 13:20:00,87.0,73.3,29.86,NE,40,4.0,4.0,64,0.00,,,0.00,Wunderground v.1.15,2013-10-23 17:20:00,
2013-10-23 13:30:00,87.3,72.7,29.86,WNW,297,4.0,5.0,62,0.00,,,0.00,Wunderground v.1.15,2013-10-23 17:30:00,
2013-10-23 13:40:00,86.9,71.8,29.86,NW,307,5.0,8.0,61,0.00,,,0.00,Wunderground v.1.15,2013-10-23 17:40:00,
2013-10-23 13:50:00,86.6,72.0,29.85,NW,311,5.0,6.0,62,0.00,,,0.00,Wunderground v.1.15,2013-10-23 17:50:00,
2013-10-23 13:59:00,87.2,72.1,29.85,WNW,293,6.0,10.0,61,0.00,,,0.00,Wunderground v.1.15,2013-10-23 17:59:00,
2013-10-23 14:10:00,87.5,71.4,29.84,WNW,284,6.0,6.0,59,0.00,,,0.00,Wunderground v.1.15,2013-10-23 18:10:00,
2013-10-23 14:20:00,87.5,71.4,29.84,WNW,301,6.0,6.0,59,0.00,,,0.00,Wunderground v.1.15,2013-10-23 18:20:00,
2013-10-23 14:30:00,86.9,70.8,29.84,WNW,291,6.0,6.0,59,0.00,,,0.00,Wunderground v.1.15,2013-10-23 18:30:00,
2013-10-23 14:50:00,86.4,71.8,29.84,West,271,6.0,6.0,62,0.00,,,0.00,Wunderground v.1.15,2013-10-23 18:50:00,
2013-10-23 15:00:00,86.1,72.5,29.84,NNW,329,6.0,6.0,64,0.00,,,0.00,Wunderground v.1.15,2013-10-23 19:00:00,
2013-10-23 15:10:00,85.1,72.5,29.84,WNW,302,5.0,5.0,66,0.00,,,0.00,Wunderground v.1.15,2013-10-23 19:10:00,
2013-10-23 15:20:00,84.6,72.9,29.84,WNW,283,5.0,5.0,68,0.00,,,0.00,Wunderground v.1.15,2013-10-23 19:20:00,
2013-10-23 15:30:00,84.6,72.4,29.84,NW,326,4.0,4.0,67,0.00,,,0.00,Wunderground v.1.15,2013-10-23 19:30:00,
2013-10-23 15:40:00,84.7,72.5,29.84,NW,318,4.0,5.0,67,0.00,,,0.00,Wunderground v.1.15,2013-10-23 19:40:00,
2013-10-23 15:50:00,84.8,73.1,29.84,NW,315,4.0,8.0,68,0.00,,,0.00,Wunderground v.1.15,2013-10-23 19:50:00,
2013-10-23 16:00:00,85.0,72.8,29.84,North,356,4.0,6.0,67,0.00,,,0.00,Wunderground v.1.15,2013-10-23 20:00:00,
2013-10-23 16:10:00,84.7,72.1,29.84,NNE,12,5.0,5.0,66,0.00,,,0.00,Wunderground v.1.15,2013-10-23 20:10:00,
2013-10-23 16:20:00,82.7,73.6,29.84,North,359,8.0,8.0,74,0.00,,,0.00,Wunderground v.1.15,2013-10-23 20:20:00,
2013-10-23 16:30:00,81.5,73.2,29.84,ENE,60,10.0,10.0,76,0.00,,,0.00,Wunderground v.1.15,2013-10-23 20:30:00,
2013-10-23 16:40:00,81.3,73.0,29.84,NE,43,9.0,9.0,76,0.00,,,0.00,Wunderground v.1.15,2013-10-23 20:40:00,
2013-10-23 16:50:00,81.9,72.8,29.84,NE,56,8.0,8.0,74,0.00,,,0.00,Wunderground v.1.15,2013-10-23 20:50:00,
2013-10-23 17:00:00,81.7,73.0,29.84,ENE,61,8.0,8.0,75,0.00,,,0.00,Wunderground v.1.15,2013-10-23 21:00:00,
2013-10-23 17:10:00,81.2,72.5,29.84,NNE,15,9.0,15.0,75,0.00,,,0.00,Wunderground v.1.15,2013-10-23 21:10:00,
2013-10-23 17:20:00,81.6,72.5,29.85,NNE,32,8.0,9.0,74,0.00,,,0.00,Wunderground v.1.15,2013-10-23 21:20:00,
2013-10-23 17:30:00,81.3,71.8,29.86,ENE,65,8.0,9.0,73,0.00,,,0.00,Wunderground v.1.15,2013-10-23 21:30:00,
2013-10-23 17:40:00,80.8,71.7,29.86,North,9,8.0,8.0,74,0.00,,,0.00,Wunderground v.1.15,2013-10-23 21:40:00,
2013-10-23 17:50:00,80.2,71.6,29.87,NNE,29,8.0,10.0,75,0.00,,,0.00,Wunderground v.1.15,2013-10-23 21:50:00,
2013-10-23 18:00:00,80.1,71.5,29.88,NNE,22,7.0,10.0,75,0.00,,,0.00,Wunderground v.1.15,2013-10-23 22:00:00,
2013-10-23 18:10:00,80.0,70.6,29.88,North,8,6.0,9.0,73,0.00,,,0.00,Wunderground v.1.15,2013-10-23 22:10:00,
2013-10-23 18:20:00,79.8,70.4,29.88,NNW,345,7.0,11.0,73,0.00,,,0.00,Wunderground v.1.15,2013-10-23 22:20:00,
2013-10-23 18:30:00,79.7,69.9,29.88,NNW,331,6.0,9.0,72,0.00,,,0.00,Wunderground v.1.15,2013-10-23 22:30:00,
2013-10-23 18:40:00,79.6,69.8,29.89,NNE,20,8.0,8.0,72,0.00,,,0.00,Wunderground v.1.15,2013-10-23 22:40:00,
2013-10-23 18:50:00,79.6,69.8,29.89,NNE,24,7.0,7.0,72,0.00,,,0.00,Wunderground v.1.15,2013-10-23 22:50:00,
2013-10-23 19:00:00,79.5,69.3,29.89,NNE,32,6.0,6.0,71,0.00,,,0.00,Wunderground v.1.15,2013-10-23 23:00:00,
2013-10-23 19:10:00,79.5,69.3,29.90,NNE,22,5.0,5.0,71,0.00,,,0.00,Wunderground v.1.15,2013-10-23 23:10:00,
2013-10-23 19:20:00,79.4,69.2,29.90,NNE,20,5.0,5.0,71,0.00,,,0.00,Wunderground v.1.15,2013-10-23 23:20:00,
2013-10-23 19:30:00,79.3,69.1,29.90,NNW,338,5.0,7.0,71,0.00,,,0.00,Wunderground v.1.15,2013-10-23 23:30:00,
2013-10-23 19:40:00,79.1,68.9,29.90,NE,46,6.0,6.0,71,0.00,,,0.00,Wunderground v.1.15,2013-10-23 23:40:00,
2013-10-23 19:50:00,79.0,68.8,29.91,NNW,344,6.0,6.0,71,0.00,,,0.00,Wunderground v.1.15,2013-10-23 23:50:00,
2013-10-23 20:00:00,78.9,68.3,29.91,North,352,7.0,7.0,70,0.00,,,0.00,Wunderground v.1.15,2013-10-24 00:00:00,
2013-10-23 20:10:00,78.9,68.3,29.92,North,356,6.0,6.0,70,0.00,,,0.00,Wunderground v.1.15,2013-10-24 00:10:00,
2013-10-23 20:20:00,78.8,68.2,29.92,NNW,336,5.0,6.0,70,0.00,,,0.00,Wunderground v.1.15,2013-10-24 00:20:00,
2013-10-23 20:30:00,78.8,68.6,29.93,NNW,340,4.0,5.0,71,0.00,,,0.00,Wunderground v.1.15,2013-10-24 00:30:00,
2013-10-23 20:40:00,78.8,68.6,29.93,NE,34,5.0,5.0,71,0.00,,,0.00,Wunderground v.1.15,2013-10-24 00:40:00,
2013-10-23 20:50:00,78.8,68.6,29.93,North,356,4.0,4.0,71,0.00,,,0.00,Wunderground v.1.15,2013-10-24 00:50:00,
2013-10-23 21:00:00,78.8,68.6,29.94,North,353,5.0,5.0,71,0.00,,,0.00,Wunderground v.1.15,2013-10-24 01:00:00,
2013-10-23 21:10:00,78.8,68.6,29.94,NNE,15,4.0,5.0,71,0.00,,,0.00,Wunderground v.1.15,2013-10-24 01:10:00,
2013-10-23 21:20:00,78.8,68.6,29.94,North,350,4.0,7.0,71,0.00,,,0.00,Wunderground v.1.15,2013-10-24 01:20:00,
2013-10-23 21:30:00,78.8,68.6,29.95,NNW,339,4.0,4.0,71,0.00,,,0.00,Wunderground v.1.15,2013-10-24 01:30:00,
2013-10-23 21:40:00,78.8,68.6,29.94,NNE,32,4.0,4.0,71,0.00,,,0.00,Wunderground v.1.15,2013-10-24 01:40:00,
2013-10-23 21:50:00,78.8,68.6,29.95,NE,34,5.0,5.0,71,0.00,,,0.00,Wunderground v.1.15,2013-10-24 01:50:00,
2013-10-23 22:00:00,78.8,68.2,29.95,North,356,4.0,4.0,70,0.00,,,0.00,Wunderground v.1.15,2013-10-24 02:00:00,
2013-10-23 22:10:00,78.6,68.4,29.95,NNW,333,4.0,4.0,71,0.00,,,0.00,Wunderground v.1.15,2013-10-24 02:10:00,
2013-10-23 22:20:00,78.5,68.3,29.96,North,10,3.0,3.0,71,0.00,,,0.00,Wunderground v.1.15,2013-10-24 02:20:00,
2013-10-23 22:30:00,78.5,68.3,29.95,NE,46,4.0,4.0,71,0.00,,,0.00,Wunderground v.1.15,2013-10-24 02:30:00,
2013-10-23 22:40:00,78.5,68.3,29.96,NNE,30,4.0,5.0,71,0.00,,,0.00,Wunderground v.1.15,2013-10-24 02:40:00,
2013-10-23 22:50:00,78.4,68.2,29.96,NE,41,3.0,4.0,71,0.00,,,0.00,Wunderground v.1.15,2013-10-24 02:50:00,
2013-10-23 23:00:00,78.4,68.2,29.97,NNE,28,3.0,3.0,71,0.00,,,0.00,Wunderground v.1.15,2013-10-24 03:00:00,
2013-10-23 23:10:00,78.3,68.1,29.97,NW,311,3.0,3.0,71,0.00,,,0.00,Wunderground v.1.15,2013-10-24 03:10:00,
2013-10-23 23:20:00,78.3,68.1,29.96,North,9,4.0,6.0,71,0.00,,,0.00,Wunderground v.1.15,2013-10-24 03:20:00,
2013-10-23 23:30:00,78.2,68.0,29.96,NNE,15,3.0,3.0,71,0.00,,,0.00,Wunderground v.1.15,2013-10-24 03:30:00,
2013-10-23 23:40:00,78.1,67.9,29.97,NW,318,3.0,3.0,71,0.00,,,0.00,Wunderground v.1.15,2013-10-24 03:40:00,
2013-10-23 23:50:00,78.0,68.2,29.96,North,11,2.0,2.0,72,0.00,,,0.00,Wunderground v.1.15,2013-10-24 03:50:00,